Time;durP1;ratioP1;P1;durP2;ratioP2;P2;SDS_P1;SDS_P2;PMS_P1;PMS_P2;Temp;Humidity;BMP_temperature;BMP_pressure;BME280_temperature;BME280_humidity;BME280_pressure;Samples;Min_cycle;Max_cycle;Signal;HPM_P1;HPM_P2
2024/01/03 00:01:16;;;;;;;50.70;19.50;;;;;;;;;;5052291;28;20440;-74
2024/01/03 00:03:43;;;;;;;47.77;19.43;;;;;;;;;;5036038;28;20440;-73
2024/01/03 00:06:09;;;;;;;51.10;20.20;;;;;;;;;;5052302;28;20447;-74
2024/01/03 00:08:38;;;;;;;53.83;21.13;;;;;;;;;;5052403;28;20432;-74
2024/01/03 00:11:05;;;;;;;53.73;21.23;;;;;;;;;;5035892;28;20414;-74
2024/01/03 00:13:38;;;;;;;52.13;21.00;;;;;;;;;;5052074;28;20517;-73
2024/01/03 00:16:06;;;;;;;57.03;21.47;;;;;;;;;;5053310;28;20512;-74
2024/01/03 00:18:34;;;;;;;53.27;21.00;;;;;;;;;;5053220;28;20420;-74
2024/01/03 00:21:05;;;;;;;56.83;22.63;;;;;;;;;;5035953;28;20544;-74
2024/01/03 00:23:52;;;;;;;62.80;21.70;;;;;;;;;;5053436;28;20818;-73
2024/01/03 00:26:19;;;;;;;51.17;20.73;;;;;;;;;;5047923;28;20499;-73
2024/01/03 00:28:45;;;;;;;52.60;20.97;;;;;;;;;;5052783;28;20429;-74
2024/01/03 00:31:32;;;;;;;49.77;21.00;;;;;;;;;;5051864;28;20429;-74
2024/01/03 00:33:59;;;;;;;51.10;20.23;;;;;;;;;;5048334;28;20473;-73
2024/01/03 00:36:26;;;;;;;46.47;19.03;;;;;;;;;;5053665;28;20409;-74
2024/01/03 00:38:52;;;;;;;42.83;19.23;;;;;;;;;;5053028;28;20807;-73
2024/01/03 00:41:19;;;;;;;47.20;19.77;;;;;;;;;;5052725;28;20432;-74
2024/01/03 00:43:46;;;;;;;51.67;19.77;;;;;;;;;;5053433;28;20930;-74
2024/01/03 00:46:13;;;;;;;47.33;19.13;;;;;;;;;;5035595;28;20433;-73
2024/01/03 00:48:57;;;;;;;52.73;20.73;;;;;;;;;;5053292;28;20435;-74
2024/01/03 00:51:24;;;;;;;42.37;17.90;;;;;;;;;;5019145;28;20483;-74
2024/01/03 00:53:51;;;;;;;48.50;18.47;;;;;;;;;;5053000;28;20453;-74
2024/01/03 00:56:18;;;;;;;67.07;20.20;;;;;;;;;;5055387;28;20424;-74
2024/01/03 00:58:44;;;;;;;44.97;18.80;;;;;;;;;;5055570;28;20440;-74
2024/01/03 01:01:11;;;;;;;69.20;20.23;;;;;;;;;;5056294;28;20428;-74
2024/01/03 01:03:38;;;;;;;40.27;19.13;;;;;;;;;;5022509;28;20433;-73
2024/01/03 01:06:05;;;;;;;41.87;17.73;;;;;;;;;;5055272;28;20433;-74
2024/01/03 01:08:35;;;;;;;67.50;19.53;;;;;;;;;;5039348;28;20434;-73
2024/01/03 01:11:02;;;;;;;49.20;19.60;;;;;;;;;;5056463;28;20518;-73
2024/01/03 01:49:22;;;;;;;37.40;18.33;;;;;;;;;;5056337;28;20524;-74
2024/01/03 01:51:50;;;;;;;41.53;18.87;;;;;;;;;;5022719;28;20436;-74
2024/01/03 01:54:17;;;;;;;40.10;19.10;;;;;;;;;;5055150;28;20443;-74
2024/01/03 01:56:44;;;;;;;37.83;17.60;;;;;;;;;;5054201;28;20531;-73
2024/01/03 01:59:11;;;;;;;34.60;15.73;;;;;;;;;;5055059;28;20450;-74
2024/01/03 02:01:37;;;;;;;37.47;18.50;;;;;;;;;;5021370;28;20459;-74
2024/01/03 02:04:04;;;;;;;37.33;16.93;;;;;;;;;;5053909;28;20464;-73
2024/01/03 02:06:31;;;;;;;35.33;17.23;;;;;;;;;;5038220;28;20452;-73
2024/01/03 02:08:58;;;;;;;36.50;17.97;;;;;;;;;;5021196;28;20432;-73
2024/01/03 02:11:25;;;;;;;35.17;16.50;;;;;;;;;;5054917;28;20448;-73
2024/01/03 02:14:09;;;;;;;35.57;16.63;;;;;;;;;;5054292;28;20389;-73
2024/01/03 02:16:35;;;;;;;37.37;17.50;;;;;;;;;;5037980;28;20425;-73
2024/01/03 02:19:04;;;;;;;38.57;16.50;;;;;;;;;;5055414;28;20537;-73
2024/01/03 02:21:31;;;;;;;31.53;16.17;;;;;;;;;;5055677;28;20467;-74
2024/01/03 02:23:57;;;;;;;31.13;16.53;;;;;;;;;;5038037;28;20465;-74
2024/01/03 02:26:42;;;;;;;35.13;15.83;;;;;;;;;;5040219;28;20421;-74
2024/01/03 02:29:08;;;;;;;33.60;15.50;;;;;;;;;;5037789;28;20529;-74
2024/01/03 02:31:35;;;;;;;31.03;15.80;;;;;;;;;;5053931;28;20429;-74
2024/01/03 02:34:01;;;;;;;27.67;15.80;;;;;;;;;;5037235;28;20421;-73
2024/01/03 02:36:28;;;;;;;28.67;13.33;;;;;;;;;;5053691;28;20435;-74
2024/01/03 02:38:56;;;;;;;29.33;14.33;;;;;;;;;;5054168;28;20416;-74
2024/01/03 02:41:23;;;;;;;26.80;13.63;;;;;;;;;;5037229;28;20472;-74
2024/01/03 02:43:50;;;;;;;30.33;13.70;;;;;;;;;;5053772;28;20528;-74
2024/01/03 02:46:18;;;;;;;26.30;13.17;;;;;;;;;;5053424;28;20528;-74
2024/01/03 02:48:44;;;;;;;21.73;12.30;;;;;;;;;;5036710;28;20483;-74
2024/01/03 02:51:18;;;;;;;23.90;12.17;;;;;;;;;;5053415;28;20450;-74
2024/01/03 02:53:45;;;;;;;21.33;11.40;;;;;;;;;;5053355;28;20485;-73
2024/01/03 02:56:12;;;;;;;21.07;10.90;;;;;;;;;;5053415;28;20863;-74
2024/01/03 02:58:39;;;;;;;22.13;11.17;;;;;;;;;;5036784;28;20430;-74
2024/01/03 03:01:06;;;;;;;21.80;10.73;;;;;;;;;;5036755;28;20445;-73
2024/01/03 03:03:33;;;;;;;17.67;10.03;;;;;;;;;;5037292;28;20415;-74
2024/01/03 03:06:00;;;;;;;17.70;10.20;;;;;;;;;;5054566;28;20766;-74
2024/01/03 03:08:26;;;;;;;19.40;11.57;;;;;;;;;;5053340;28;20434;-74
2024/01/03 03:10:53;;;;;;;19.67;10.00;;;;;;;;;;5054004;28;20424;-74
2024/01/03 03:13:20;;;;;;;17.83;9.93;;;;;;;;;;5052976;28;20425;-74
2024/01/03 03:15:47;;;;;;;18.77;10.47;;;;;;;;;;5052679;28;20425;-74
2024/01/03 03:18:14;;;;;;;18.17;9.53;;;;;;;;;;5036179;28;20460;-74
2024/01/03 03:20:41;;;;;;;19.40;11.13;;;;;;;;;;5052607;28;20896;-74
2024/01/03 03:23:25;;;;;;;18.77;10.50;;;;;;;;;;5054448;28;20839;-74
2024/01/03 03:25:51;;;;;;;19.50;9.77;;;;;;;;;;5052725;28;20473;-74
2024/01/03 03:28:19;;;;;;;19.33;11.37;;;;;;;;;;5053697;28;20437;-74
2024/01/03 03:30:45;;;;;;;20.03;10.80;;;;;;;;;;5019552;28;20961;-74
2024/01/03 03:33:12;;;;;;;19.87;10.70;;;;;;;;;;5054223;28;20904;-74
2024/01/03 03:35:42;;;;;;;21.10;11.03;;;;;;;;;;5053711;28;20419;-74
2024/01/03 03:38:09;;;;;;;21.87;11.10;;;;;;;;;;5053677;28;20423;-74
2024/01/03 03:40:36;;;;;;;18.33;10.00;;;;;;;;;;5020795;28;20426;-74
2024/01/03 03:43:02;;;;;;;18.70;11.27;;;;;;;;;;5052971;28;20421;-75
2024/01/03 03:45:29;;;;;;;16.90;10.07;;;;;;;;;;5052949;28;20492;-74
2024/01/03 03:47:56;;;;;;;17.03;9.90;;;;;;;;;;5052759;28;20438;-75
2024/01/03 03:50:22;;;;;;;18.50;9.90;;;;;;;;;;5052922;28;20417;-75
2024/01/03 03:52:49;;;;;;;20.67;11.30;;;;;;;;;;5053952;28;20889;-77
2024/01/03 03:55:17;;;;;;;18.10;10.63;;;;;;;;;;5053469;28;20421;-77
2024/01/03 03:57:43;;;;;;;19.57;11.43;;;;;;;;;;5054973;28;20590;-77
2024/01/03 04:00:10;;;;;;;18.00;10.40;;;;;;;;;;5053484;28;20445;-75
2024/01/03 04:02:40;;;;;;;20.33;10.37;;;;;;;;;;5052255;28;20859;-78
2024/01/03 04:05:07;;;;;;;21.13;11.17;;;;;;;;;;5019914;28;20955;-79
2024/01/03 04:07:33;;;;;;;18.97;11.37;;;;;;;;;;5053767;28;21023;-78
2024/01/03 04:10:02;;;;;;;20.37;11.03;;;;;;;;;;5052408;28;20425;-75
2024/01/03 04:12:29;;;;;;;21.37;11.23;;;;;;;;;;5053827;28;20525;-75
2024/01/03 04:14:55;;;;;;;17.13;9.93;;;;;;;;;;5052353;28;20436;-74
2024/01/03 04:17:22;;;;;;;17.93;10.03;;;;;;;;;;5052216;28;20504;-75
2024/01/03 04:19:49;;;;;;;19.80;10.63;;;;;;;;;;5052435;28;20413;-76
2024/01/03 04:22:16;;;;;;;17.30;10.33;;;;;;;;;;5052593;28;20524;-77
2024/01/03 04:24:42;;;;;;;18.10;10.07;;;;;;;;;;5053881;28;20466;-77
2024/01/03 04:27:09;;;;;;;19.20;10.37;;;;;;;;;;5053200;28;20511;-76
2024/01/03 04:29:36;;;;;;;16.53;9.30;;;;;;;;;;5057324;28;20447;-76
2024/01/03 04:32:03;;;;;;;16.43;9.23;;;;;;;;;;5056765;28;20439;-78
2024/01/03 04:34:29;;;;;;;17.80;9.97;;;;;;;;;;5023254;28;20529;-76
2024/01/03 04:36:56;;;;;;;18.87;9.80;;;;;;;;;;5055865;28;20433;-79
2024/01/03 04:43:22;;;;;;;17.63;9.67;;;;;;;;;;5056716;28;20427;-77
2024/01/03 04:45:49;;;;;;;18.83;10.10;;;;;;;;;;5055400;28;20466;-75
2024/01/03 04:48:16;;;;;;;17.13;9.57;;;;;;;;;;5055474;28;20753;-80
2024/01/03 04:50:43;;;;;;;16.07;8.90;;;;;;;;;;5039038;28;20442;-77
2024/01/03 04:53:10;;;;;;;15.27;9.17;;;;;;;;;;5055696;28;20421;-75
2024/01/03 04:55:37;;;;;;;15.93;9.83;;;;;;;;;;5055224;28;20436;-76
2024/01/03 04:58:03;;;;;;;16.53;9.53;;;;;;;;;;5057115;28;20425;-75
2024/01/03 05:00:30;;;;;;;15.73;10.07;;;;;;;;;;5038679;28;20475;-75
2024/01/03 05:02:57;;;;;;;19.17;9.20;;;;;;;;;;5038867;28;20449;-77
2024/01/03 05:05:24;;;;;;;19.77;10.20;;;;;;;;;;5055166;28;20467;-78
2024/01/03 05:07:51;;;;;;;17.40;10.80;;;;;;;;;;5022625;28;20528;-78
2024/01/03 05:10:18;;;;;;;19.27;10.63;;;;;;;;;;5055207;28;20433;-79
2024/01/03 05:12:44;;;;;;;17.93;10.27;;;;;;;;;;5055047;28;20444;-76
2024/01/03 05:15:11;;;;;;;17.37;10.50;;;;;;;;;;5055700;28;20476;-77
2024/01/03 05:17:38;;;;;;;18.13;10.40;;;;;;;;;;5055073;28;20760;-76
2024/01/03 05:20:05;;;;;;;18.17;9.97;;;;;;;;;;5056167;28;20425;-78
2024/01/03 05:22:32;;;;;;;20.80;10.73;;;;;;;;;;5054578;28;20971;-76
2024/01/03 05:25:16;;;;;;;18.53;10.37;;;;;;;;;;5055724;28;20472;-75
2024/01/03 05:27:43;;;;;;;20.90;10.03;;;;;;;;;;5054707;28;20768;-77
2024/01/03 05:30:11;;;;;;;19.67;11.07;;;;;;;;;;5056387;28;20516;-76
2024/01/03 05:32:38;;;;;;;19.10;10.40;;;;;;;;;;5056259;28;20837;-77
2024/01/03 05:35:05;;;;;;;19.87;11.10;;;;;;;;;;5054369;28;20520;-76
2024/01/03 05:37:32;;;;;;;18.90;10.23;;;;;;;;;;5038220;28;21010;-78
2024/01/03 05:39:58;;;;;;;17.20;9.83;;;;;;;;;;5053764;28;20432;-76
2024/01/03 05:42:25;;;;;;;18.27;10.70;;;;;;;;;;5055849;28;20950;-75
2024/01/03 05:44:52;;;;;;;16.23;9.73;;;;;;;;;;5055445;28;20484;-77
2024/01/03 05:47:18;;;;;;;17.07;9.97;;;;;;;;;;5055969;28;20483;-76
2024/01/03 05:49:45;;;;;;;17.77;9.50;;;;;;;;;;5038264;28;20429;-76
2024/01/03 05:52:12;;;;;;;18.93;9.77;;;;;;;;;;5022082;28;20425;-76
2024/01/03 05:54:39;;;;;;;18.67;10.10;;;;;;;;;;5038212;28;20441;-76
2024/01/03 05:57:05;;;;;;;17.07;9.13;;;;;;;;;;5015241;28;20451;-75
2024/01/03 05:59:35;;;;;;;14.13;8.57;;;;;;;;;;5008412;28;20438;-75
2024/01/03 06:02:02;;;;;;;14.57;8.70;;;;;;;;;;5008570;28;20454;-74
2024/01/03 06:04:29;;;;;;;13.13;8.13;;;;;;;;;;5024302;28;20442;-73
2024/01/03 06:06:55;;;;;;;15.87;8.47;;;;;;;;;;5008495;28;20434;-74
2024/01/03 06:09:22;;;;;;;14.57;8.03;;;;;;;;;;5008726;28;20431;-73
2024/01/03 06:11:49;;;;;;;16.10;8.57;;;;;;;;;;5008804;28;21075;-75
2024/01/03 06:14:17;;;;;;;12.70;7.53;;;;;;;;;;5008699;28;20422;-75
2024/01/03 06:16:44;;;;;;;14.00;8.60;;;;;;;;;;5025138;28;20917;-74
2024/01/03 06:19:11;;;;;;;15.60;8.73;;;;;;;;;;5025439;28;20909;-75
2024/01/03 06:21:38;;;;;;;12.13;7.70;;;;;;;;;;5008945;28;20473;-74
2024/01/03 06:24:04;;;;;;;12.07;7.70;;;;;;;;;;5008098;28;20422;-77
2024/01/03 06:26:32;;;;;;;15.20;7.70;;;;;;;;;;5008036;28;20987;-78
2024/01/03 06:28:59;;;;;;;13.50;8.37;;;;;;;;;;5007980;28;20524;-76
2024/01/03 06:31:26;;;;;;;11.33;6.60;;;;;;;;;;5024176;28;20430;-77
2024/01/03 06:33:52;;;;;;;12.77;7.50;;;;;;;;;;5024475;28;20414;-77
2024/01/03 06:36:20;;;;;;;12.87;7.57;;;;;;;;;;5024329;28;20940;-75
2024/01/03 06:38:47;;;;;;;11.60;6.67;;;;;;;;;;5007435;28;20423;-75
2024/01/03 06:41:13;;;;;;;12.83;8.03;;;;;;;;;;5007700;28;20521;-74
2024/01/03 06:43:40;;;;;;;10.07;6.67;;;;;;;;;;5007679;28;20528;-74
2024/01/03 06:46:07;;;;;;;12.73;7.87;;;;;;;;;;5007545;28;21041;-71
2024/01/03 06:48:34;;;;;;;11.67;7.87;;;;;;;;;;5024040;28;21004;-71
2024/01/03 06:51:02;;;;;;;12.87;7.43;;;;;;;;;;5008309;28;20433;-71
2024/01/03 06:53:33;;;;;;;14.60;8.13;;;;;;;;;;5033125;28;20425;-70
2024/01/03 06:56:00;;;;;;;13.83;8.20;;;;;;;;;;5017880;28;20414;-70
2024/01/03 06:58:28;;;;;;;12.90;7.90;;;;;;;;;;5016953;28;20769;-70
2024/01/03 07:04:54;;;;;;;13.03;6.97;;;;;;;;;;5023203;28;20528;-70
2024/01/03 07:07:21;;;;;;;12.93;7.33;;;;;;;;;;5016664;28;20438;-70
2024/01/03 07:09:47;;;;;;;11.97;6.90;;;;;;;;;;5033029;28;20446;-70
2024/01/03 07:12:18;;;;;;;11.93;7.27;;;;;;;;;;5033442;28;20513;-70
2024/01/03 07:14:46;;;;;;;11.10;7.67;;;;;;;;;;5032680;28;20491;-78
2024/01/03 07:17:15;;;;;;;12.60;7.43;;;;;;;;;;5017134;28;20488;-78
2024/01/03 07:19:42;;;;;;;10.33;6.80;;;;;;;;;;5034798;28;20430;-78
2024/01/03 07:26:08;;;;;;;10.77;6.63;;;;;;;;;;5024940;28;20489;-75
2024/01/03 07:28:36;;;;;;;12.00;6.90;;;;;;;;;;5007027;28;20430;-76
2024/01/03 07:31:03;;;;;;;9.77;6.57;;;;;;;;;;5007785;28;20434;-75
2024/01/03 07:33:30;;;;;;;11.57;7.20;;;;;;;;;;5007500;28;20430;-75
2024/01/03 07:35:57;;;;;;;11.97;7.43;;;;;;;;;;4990744;28;20446;-79
2024/01/03 07:38:24;;;;;;;11.20;7.23;;;;;;;;;;5006986;28;20418;-79
2024/01/03 07:40:51;;;;;;;10.43;6.83;;;;;;;;;;5007028;28;20825;-78
2024/01/03 07:43:18;;;;;;;10.70;7.00;;;;;;;;;;5006767;28;20429;-76
2024/01/03 07:45:45;;;;;;;11.73;6.57;;;;;;;;;;5022846;28;20458;-75
2024/01/03 07:48:12;;;;;;;11.37;7.30;;;;;;;;;;5023177;28;20426;-75
2024/01/03 07:50:39;;;;;;;9.00;5.97;;;;;;;;;;5023176;28;20443;-76
2024/01/03 07:53:07;;;;;;;11.27;6.93;;;;;;;;;;5023305;28;20438;-76
2024/01/03 07:55:34;;;;;;;10.27;6.60;;;;;;;;;;5006965;28;20484;-76
2024/01/03 07:58:01;;;;;;;14.70;7.10;;;;;;;;;;5006671;28;21166;-78
2024/01/03 08:00:30;;;;;;;9.27;6.47;;;;;;;;;;5011276;28;21110;-73
2024/01/03 08:11:02;;;;;;;10.00;6.43;;;;;;;;;;5027822;28;20409;-75
2024/01/03 08:13:30;;;;;;;12.77;7.10;;;;;;;;;;5010091;28;20449;-74
2024/01/03 08:15:57;;;;;;;10.47;6.90;;;;;;;;;;5025999;28;20450;-71
2024/01/03 08:18:24;;;;;;;10.53;6.83;;;;;;;;;;5026348;28;20501;-71
2024/01/03 08:21:09;;;;;;;9.00;6.27;;;;;;;;;;5012486;28;20501;-74
2024/01/03 08:23:36;;;;;;;10.07;7.33;;;;;;;;;;5026203;28;20521;-75
2024/01/03 08:26:09;;;;;;;12.30;7.37;;;;;;;;;;5015465;28;20488;-73
2024/01/03 08:28:37;;;;;;;9.60;6.37;;;;;;;;;;5076553;28;20436;-74
2024/01/03 08:31:21;;;;;;;10.70;7.03;;;;;;;;;;5048719;28;20899;-74
2024/01/03 08:33:47;;;;;;;10.47;6.73;;;;;;;;;;5077233;28;20420;-74
2024/01/03 08:36:15;;;;;;;11.20;7.07;;;;;;;;;;5059766;28;20826;-74
2024/01/03 08:38:42;;;;;;;11.03;6.50;;;;;;;;;;5059762;28;20424;-74
2024/01/03 08:41:15;;;;;;;9.60;6.80;;;;;;;;;;5059149;28;20860;-74
2024/01/03 08:44:02;;;;;;;11.30;6.73;;;;;;;;;;5075686;28;20421;-74
2024/01/03 08:46:30;;;;;;;10.63;6.80;;;;;;;;;;5059375;28;20466;-74
2024/01/03 08:48:57;;;;;;;12.60;6.70;;;;;;;;;;5075804;28;20527;-74
2024/01/03 08:51:24;;;;;;;10.30;6.97;;;;;;;;;;5076734;28;20419;-74
2024/01/03 08:53:51;;;;;;;10.23;6.43;;;;;;;;;;5059378;28;20432;-74
2024/01/03 08:56:18;;;;;;;11.20;6.97;;;;;;;;;;5075412;28;20424;-74
2024/01/03 08:58:46;;;;;;;11.93;6.87;;;;;;;;;;5075632;28;20428;-74
2024/01/03 09:01:18;;;;;;;11.40;7.20;;;;;;;;;;5058731;28;20428;-74
2024/01/03 09:03:45;;;;;;;10.33;6.10;;;;;;;;;;5075657;28;20450;-75
2024/01/03 09:06:22;;;;;;;11.80;6.93;;;;;;;;;;5076138;28;20503;-74
2024/01/03 09:08:54;;;;;;;11.03;6.77;;;;;;;;;;5075282;28;20444;-75
2024/01/03 09:11:22;;;;;;;11.10;6.90;;;;;;;;;;5059138;28;20500;-75
2024/01/03 09:13:50;;;;;;;13.40;7.50;;;;;;;;;;5077173;28;20420;-75
2024/01/03 09:16:17;;;;;;;13.63;7.13;;;;;;;;;;5075624;28;20424;-75
2024/01/03 09:18:47;;;;;;;11.87;7.10;;;;;;;;;;5077184;28;20476;-75
2024/01/03 09:21:31;;;;;;;11.10;7.20;;;;;;;;;;5062808;28;20954;-76
2024/01/03 09:23:58;;;;;;;11.77;7.53;;;;;;;;;;5076382;28;20416;-75
2024/01/03 09:26:26;;;;;;;12.20;7.60;;;;;;;;;;5075560;28;20522;-75
2024/01/03 09:28:53;;;;;;;11.83;6.90;;;;;;;;;;5076150;28;20470;-77
2024/01/03 09:31:20;;;;;;;11.50;7.30;;;;;;;;;;5043219;28;20432;-72
2024/01/03 09:33:47;;;;;;;9.77;6.33;;;;;;;;;;5076710;28;20417;-73
2024/01/03 09:36:18;;;;;;;13.00;6.60;;;;;;;;;;5076896;28;20428;-72
2024/01/03 09:38:50;;;;;;;10.77;6.40;;;;;;;;;;5060595;28;20426;-74
2024/01/03 09:41:18;;;;;;;10.60;6.70;;;;;;;;;;5077291;28;20499;-73
2024/01/03 09:43:45;;;;;;;11.00;6.90;;;;;;;;;;5074901;28;20432;-73
2024/01/03 09:46:12;;;;;;;8.90;5.83;;;;;;;;;;5059570;28;20460;-74
2024/01/03 09:48:42;;;;;;;10.33;6.20;;;;;;;;;;5078604;28;20428;-75
2024/01/03 09:51:09;;;;;;;9.90;6.80;;;;;;;;;;5058977;28;20407;-72
2024/01/03 09:53:36;;;;;;;17.43;10.00;;;;;;;;;;5075931;28;20428;-72
2024/01/03 09:56:03;;;;;;;17.37;9.37;;;;;;;;;;5075633;28;20933;-74
2024/01/03 09:58:30;;;;;;;12.13;6.80;;;;;;;;;;5075711;28;20892;-74
2024/01/03 10:00:56;;;;;;;10.80;6.33;;;;;;;;;;5074919;28;20444;-74
2024/01/03 10:03:41;;;;;;;11.97;6.10;;;;;;;;;;5075359;28;20379;-74
2024/01/03 10:06:10;;;;;;;10.40;6.40;;;;;;;;;;5058122;28;20471;-74
2024/01/03 10:08:58;;;;;;;9.77;6.47;;;;;;;;;;5075247;28;20423;-74
2024/01/03 10:11:26;;;;;;;13.47;7.23;;;;;;;;;;5043112;28;20510;-74
2024/01/03 10:13:53;;;;;;;12.33;7.07;;;;;;;;;;5038941;28;20453;-73
2024/01/03 10:16:23;;;;;;;11.03;7.00;;;;;;;;;;5054778;28;20566;-73
2024/01/03 10:19:06;;;;;;;12.37;7.40;;;;;;;;;;5038279;28;20468;-73
2024/01/03 10:21:33;;;;;;;11.27;6.80;;;;;;;;;;5055025;28;20487;-73
2024/01/03 10:24:01;;;;;;;11.57;7.37;;;;;;;;;;5038044;28;20782;-74
2024/01/03 10:26:27;;;;;;;12.17;7.70;;;;;;;;;;5010200;28;20482;-73
2024/01/03 10:29:09;;;;;;;13.03;8.30;;;;;;;;;;4992496;28;20434;-72
2024/01/03 10:31:37;;;;;;;12.10;7.60;;;;;;;;;;5009247;28;20426;-74
2024/01/03 10:34:08;;;;;;;16.10;8.73;;;;;;;;;;5024712;28;20469;-74
2024/01/03 10:36:36;;;;;;;12.60;7.53;;;;;;;;;;5025780;28;20434;-71
2024/01/03 10:39:03;;;;;;;13.30;8.37;;;;;;;;;;5024505;28;20430;-71
2024/01/03 10:41:33;;;;;;;11.53;7.00;;;;;;;;;;5023725;28;20461;-73
2024/01/03 10:44:01;;;;;;;10.50;6.87;;;;;;;;;;4991693;28;21078;-72
2024/01/03 10:46:28;;;;;;;12.17;7.30;;;;;;;;;;5008193;28;20544;-73
2024/01/03 10:48:55;;;;;;;12.53;7.50;;;;;;;;;;5007808;28;20429;-72
2024/01/03 10:51:23;;;;;;;11.67;6.97;;;;;;;;;;5007765;28;20434;-74
2024/01/03 10:53:51;;;;;;;12.10;7.70;;;;;;;;;;5007752;28;20514;-74
2024/01/03 10:56:18;;;;;;;11.33;7.57;;;;;;;;;;5023889;28;20484;-75
2024/01/03 10:58:45;;;;;;;12.70;7.20;;;;;;;;;;5025242;28;20480;-74
2024/01/03 11:01:16;;;;;;;12.67;7.60;;;;;;;;;;5008086;28;20468;-79
2024/01/03 11:04:01;;;;;;;12.70;7.63;;;;;;;;;;5025217;28;20438;-76
2024/01/03 11:06:35;;;;;;;10.63;7.00;;;;;;;;;;5025639;28;20494;-78
2024/01/03 11:09:02;;;;;;;11.70;7.20;;;;;;;;;;5008614;28;20454;-71
2024/01/03 11:11:30;;;;;;;11.70;7.17;;;;;;;;;;5008098;28;20492;-78
2024/01/03 11:13:57;;;;;;;10.57;6.33;;;;;;;;;;5023858;28;20920;-79
2024/01/03 11:16:37;;;;;;;12.67;7.37;;;;;;;;;;5033360;28;20439;-73
2024/01/03 11:19:04;;;;;;;12.13;7.20;;;;;;;;;;5027448;28;20464;-76
2024/01/03 11:21:31;;;;;;;12.07;7.13;;;;;;;;;;5043769;28;20417;-82
2024/01/03 11:23:58;;;;;;;13.50;7.67;;;;;;;;;;5045786;28;20433;-78
2024/01/03 11:26:44;;;;;;;12.67;7.67;;;;;;;;;;5015029;28;20558;-73
2024/01/03 11:29:30;;;;;;;13.67;7.23;;;;;;;;;;5043521;28;20459;-77
2024/01/03 11:32:02;;;;;;;13.23;7.90;;;;;;;;;;5027353;28;20440;-75
2024/01/03 11:34:47;;;;;;;12.53;8.10;;;;;;;;;;5043866;28;20425;-74
2024/01/03 11:37:20;;;;;;;14.33;8.17;;;;;;;;;;5042998;28;20742;-75
2024/01/03 11:39:50;;;;;;;11.77;7.87;;;;;;;;;;5043978;28;20511;-74
2024/01/03 11:42:21;;;;;;;14.03;8.17;;;;;;;;;;5011029;28;20429;-74
2024/01/03 11:45:07;;;;;;;12.87;8.13;;;;;;;;;;5027071;28;20960;-74
2024/01/03 11:47:35;;;;;;;11.10;7.43;;;;;;;;;;5026781;28;20472;-75
2024/01/03 11:50:04;;;;;;;11.10;7.30;;;;;;;;;;5043163;28;20433;-71
2024/01/03 11:52:36;;;;;;;11.73;6.97;;;;;;;;;;5026897;28;20437;-75
2024/01/03 11:55:06;;;;;;;13.33;8.30;;;;;;;;;;5026732;28;20788;-75
2024/01/03 11:57:50;;;;;;;13.20;8.07;;;;;;;;;;5043275;28;20986;-77
2024/01/03 12:00:20;;;;;;;11.63;7.60;;;;;;;;;;5027109;28;20788;-72
2024/01/03 12:02:50;;;;;;;13.57;7.50;;;;;;;;;;5027220;28;20445;-73
2024/01/03 12:05:17;;;;;;;11.10;7.33;;;;;;;;;;5044226;28;20441;-73
2024/01/03 12:07:44;;;;;;;12.27;8.00;;;;;;;;;;5043456;28;20465;-72
2024/01/03 12:10:12;;;;;;;12.30;7.97;;;;;;;;;;5026802;28;20479;-70
2024/01/03 12:12:39;;;;;;;15.13;8.93;;;;;;;;;;5044325;28;20436;-75
2024/01/03 12:15:06;;;;;;;12.43;8.23;;;;;;;;;;5044779;28;20440;-75
2024/01/03 12:17:33;;;;;;;13.60;8.20;;;;;;;;;;5043741;28;20448;-73
2024/01/03 12:20:09;;;;;;;14.87;9.57;;;;;;;;;;5027577;28;20941;-73
2024/01/03 12:22:36;;;;;;;13.43;8.33;;;;;;;;;;5026468;28;20439;-77
2024/01/03 12:25:03;;;;;;;14.60;8.43;;;;;;;;;;5043599;28;20417;-75
2024/01/03 12:27:31;;;;;;;12.17;7.60;;;;;;;;;;5014246;28;20505;-73
2024/01/03 12:30:12;;;;;;;12.87;8.10;;;;;;;;;;5027003;28;20512;-74
2024/01/03 12:32:40;;;;;;;12.60;7.97;;;;;;;;;;5027152;28;21412;-74
2024/01/03 12:35:07;;;;;;;15.90;8.13;;;;;;;;;;5043478;28;20438;-73
2024/01/03 12:37:40;;;;;;;14.23;8.00;;;;;;;;;;5026970;28;20857;-76
2024/01/03 12:40:08;;;;;;;12.73;8.37;;;;;;;;;;5026591;28;20436;-74
2024/01/03 12:42:35;;;;;;;14.47;8.37;;;;;;;;;;5026586;28;20434;-71
2024/01/03 12:45:08;;;;;;;13.50;8.23;;;;;;;;;;5042995;28;21023;-72
2024/01/03 12:47:35;;;;;;;15.27;9.00;;;;;;;;;;5043865;28;20472;-73
2024/01/03 12:50:02;;;;;;;15.63;9.03;;;;;;;;;;5047629;28;20416;-77
2024/01/03 12:52:29;;;;;;;17.30;9.20;;;;;;;;;;5047443;28;20433;-76
2024/01/03 12:54:56;;;;;;;17.57;8.90;;;;;;;;;;5046497;28;20433;-75
2024/01/03 12:57:23;;;;;;;18.47;9.77;;;;;;;;;;5046550;28;20543;-75
2024/01/03 12:59:51;;;;;;;15.43;9.33;;;;;;;;;;5046351;28;20500;-75
2024/01/03 13:02:18;;;;;;;14.33;8.50;;;;;;;;;;5046469;28;20441;-71
2024/01/03 13:04:45;;;;;;;15.47;8.73;;;;;;;;;;5046973;28;20429;-79
2024/01/03 13:07:13;;;;;;;14.70;9.03;;;;;;;;;;5013177;28;21799;-79
2024/01/03 13:09:40;;;;;;;16.80;9.10;;;;;;;;;;5012954;28;20434;-79
2024/01/03 13:16:06;;;;;;;13.90;8.47;;;;;;;;;;5046650;28;20524;-76
2024/01/03 13:22:34;;;;;;;17.73;9.13;;;;;;;;;;5046745;28;20420;-75
2024/01/03 13:25:01;;;;;;;15.90;9.40;;;;;;;;;;5045308;28;20766;-76
2024/01/03 13:27:47;;;;;;;17.80;9.77;;;;;;;;;;5019332;28;20484;-76
2024/01/03 13:30:14;;;;;;;15.63;8.97;;;;;;;;;;5044845;28;20842;-72
2024/01/03 13:32:42;;;;;;;14.57;8.80;;;;;;;;;;5046020;28;20506;-73
2024/01/03 13:35:09;;;;;;;15.17;9.10;;;;;;;;;;5046261;28;20422;-72
2024/01/03 13:37:36;;;;;;;14.53;9.20;;;;;;;;;;5046283;28;20449;-72
2024/01/03 13:40:04;;;;;;;17.03;9.80;;;;;;;;;;5044635;28;20425;-72
2024/01/03 13:42:31;;;;;;;17.07;9.77;;;;;;;;;;5046329;28;20476;-75
2024/01/03 13:44:58;;;;;;;18.10;9.90;;;;;;;;;;5045311;28;20422;-75
2024/01/03 13:47:25;;;;;;;17.03;10.27;;;;;;;;;;5012110;28;20484;-70
2024/01/03 13:49:54;;;;;;;17.20;9.70;;;;;;;;;;5028400;28;20422;-70
2024/01/03 13:52:21;;;;;;;18.37;10.00;;;;;;;;;;5028797;28;20756;-70
2024/01/03 13:54:48;;;;;;;14.90;9.27;;;;;;;;;;5044973;28;20416;-70
2024/01/03 13:57:15;;;;;;;17.83;9.43;;;;;;;;;;5046604;28;20759;-70
2024/01/03 13:59:42;;;;;;;15.90;9.60;;;;;;;;;;5012095;28;20986;-72
2024/01/03 14:02:09;;;;;;;16.53;9.10;;;;;;;;;;5044219;28;20433;-70
2024/01/03 14:04:37;;;;;;;16.47;8.80;;;;;;;;;;5044796;28;20421;-71
2024/01/03 14:07:04;;;;;;;16.43;9.87;;;;;;;;;;5045985;28;20555;-71
2024/01/03 14:09:30;;;;;;;17.93;9.77;;;;;;;;;;5044688;28;20448;-71
2024/01/03 14:11:57;;;;;;;21.67;12.50;;;;;;;;;;5045507;28;20529;-75
2024/01/03 14:14:26;;;;;;;19.80;10.57;;;;;;;;;;5011894;28;21280;-72
2024/01/03 14:16:54;;;;;;;18.17;10.17;;;;;;;;;;5028006;28;20437;-72
2024/01/03 14:19:21;;;;;;;17.97;10.27;;;;;;;;;;5043515;28;20425;-73
2024/01/03 14:21:49;;;;;;;15.13;9.20;;;;;;;;;;5028299;28;20441;-73
2024/01/03 14:24:17;;;;;;;14.90;9.23;;;;;;;;;;5042655;28;20417;-73
2024/01/03 14:26:45;;;;;;;17.07;9.40;;;;;;;;;;5005821;28;21040;-74
2024/01/03 14:29:11;;;;;;;17.60;9.97;;;;;;;;;;5025279;28;20426;-71
2024/01/03 14:31:42;;;;;;;16.17;9.40;;;;;;;;;;5023910;28;20537;-74
2024/01/03 14:38:16;;;;;;;16.00;9.63;;;;;;;;;;5028464;28;20463;-75
2024/01/03 14:40:49;;;;;;;20.37;11.30;;;;;;;;;;5015390;28;20775;-76
2024/01/03 14:47:10;;;;;;;17.67;10.43;;;;;;;;;;5045534;28;20870;-76
2024/01/03 14:49:39;;;;;;;18.07;10.17;;;;;;;;;;5026929;28;20571;-77
2024/01/03 14:52:08;;;;;;;17.57;10.67;;;;;;;;;;5008883;28;20469;-74
2024/01/03 14:54:36;;;;;;;15.77;9.93;;;;;;;;;;5023958;28;20817;-76
2024/01/03 14:57:20;;;;;;;19.70;10.70;;;;;;;;;;5024758;28;20406;-75
2024/01/03 14:59:47;;;;;;;22.40;12.20;;;;;;;;;;4991986;28;20433;-73
2024/01/03 15:02:14;;;;;;;19.90;12.07;;;;;;;;;;4991585;28;20474;-74
2024/01/03 15:04:41;;;;;;;21.13;11.43;;;;;;;;;;5023912;28;20438;-73
2024/01/03 15:07:08;;;;;;;21.27;12.10;;;;;;;;;;5023305;28;20965;-74
2024/01/03 15:09:36;;;;;;;22.97;12.90;;;;;;;;;;5030735;28;20460;-73
2024/01/03 15:12:05;;;;;;;17.43;11.17;;;;;;;;;;5006769;28;20549;-74
2024/01/03 15:14:33;;;;;;;20.83;11.83;;;;;;;;;;5007577;28;20762;-74
2024/01/03 15:17:00;;;;;;;20.97;11.63;;;;;;;;;;5007457;28;20966;-72
2024/01/03 15:19:26;;;;;;;18.73;11.50;;;;;;;;;;5024968;28;20433;-73
2024/01/03 15:21:59;;;;;;;19.70;11.60;;;;;;;;;;5007366;28;20453;-73
2024/01/03 15:24:26;;;;;;;19.70;11.97;;;;;;;;;;5025101;28;20477;-74
2024/01/03 15:26:53;;;;;;;18.37;9.60;;;;;;;;;;5013605;28;21674;-74
2024/01/03 15:29:22;;;;;;;19.70;10.80;;;;;;;;;;5023424;28;20441;-75
2024/01/03 15:31:48;;;;;;;18.63;11.00;;;;;;;;;;5007077;28;20458;-76
2024/01/03 15:34:15;;;;;;;19.13;11.43;;;;;;;;;;5023721;28;20948;-76
2024/01/03 15:36:42;;;;;;;18.50;11.03;;;;;;;;;;5007534;28;20450;-75
2024/01/03 15:39:26;;;;;;;20.63;11.03;;;;;;;;;;5009539;28;20406;-75
2024/01/03 15:41:53;;;;;;;18.30;10.63;;;;;;;;;;5006382;28;20443;-72
2024/01/03 15:44:20;;;;;;;17.80;10.77;;;;;;;;;;5021167;28;21008;-81
2024/01/03 15:46:47;;;;;;;18.20;11.60;;;;;;;;;;5006441;28;20430;-77